sensor_id;sensor_type;location;lat;lon;timestamp;P1;durP1;ratioP1;P2;durP2;ratioP2
40787;SDS011;26497;52.494;7.546;2023-03-01T00:01:10;7.13;;;3.20;;
40787;SDS011;26497;52.494;7.546;2023-03-01T00:06:10;7.22;;;2.92;;
40787;SDS011;26497;52.494;7.546;2023-03-01T00:08:37;5.35;;;3.88;;
40787;SDS011;26497;52.494;7.546;2023-03-01T00:11:05;9.32;;;3.33;;
40787;SDS011;26497;52.494;7.546;2023-03-01T00:13:37;5.22;;;2.80;;
40787;SDS011;26497;52.494;7.546;2023-03-01T00:16:06;7.93;;;4.28;;
40787;SDS011;26497;52.494;7.546;2023-03-01T00:18:35;7.00;;;4.00;;
40787;SDS011;26497;52.494;7.546;2023-03-01T00:21:03;6.57;;;3.00;;
40787;SDS011;26497;52.494;7.546;2023-03-01T00:23:33;8.05;;;3.85;;
40787;SDS011;26497;52.494;7.546;2023-03-01T00:26:00;7.38;;;3.40;;
40787;SDS011;26497;52.494;7.546;2023-03-01T00:28:28;6.60;;;4.05;;
40787;SDS011;26497;52.494;7.546;2023-03-01T00:30:55;4.57;;;3.47;;
40787;SDS011;26497;52.494;7.546;2023-03-01T00:33:22;5.70;;;2.95;;
40787;SDS011;26497;52.494;7.546;2023-03-01T00:35:49;6.95;;;3.40;;
40787;SDS011;26497;52.494;7.546;2023-03-01T00:38:16;5.65;;;3.15;;
40787;SDS011;26497;52.494;7.546;2023-03-01T00:40:44;6.28;;;3.42;;
40787;SDS011;26497;52.494;7.546;2023-03-01T00:43:11;4.85;;;3.53;;
40787;SDS011;26497;52.494;7.546;2023-03-01T00:45:39;5.13;;;3.35;;
40787;SDS011;26497;52.494;7.546;2023-03-01T00:48:06;5.72;;;3.28;;
40787;SDS011;26497;52.494;7.546;2023-03-01T00:50:33;5.78;;;3.70;;
40787;SDS011;26497;52.494;7.546;2023-03-01T00:53:00;6.38;;;3.40;;
40787;SDS011;26497;52.494;7.546;2023-03-01T00:55:27;7.55;;;3.13;;
40787;SDS011;26497;52.494;7.546;2023-03-01T00:57:55;10.15;;;4.55;;
40787;SDS011;26497;52.494;7.546;2023-03-01T01:00:23;8.50;;;3.75;;
40787;SDS011;26497;52.494;7.546;2023-03-01T01:02:52;6.68;;;3.70;;
40787;SDS011;26497;52.494;7.546;2023-03-01T01:05:19;7.28;;;4.03;;
40787;SDS011;26497;52.494;7.546;2023-03-01T01:07:47;6.88;;;2.97;;
40787;SDS011;26497;52.494;7.546;2023-03-01T01:10:14;8.55;;;4.65;;
40787;SDS011;26497;52.494;7.546;2023-03-01T01:12:43;7.22;;;4.03;;
40787;SDS011;26497;52.494;7.546;2023-03-01T01:15:13;7.20;;;4.45;;
40787;SDS011;26497;52.494;7.546;2023-03-01T01:17:41;9.35;;;4.05;;
40787;SDS011;26497;52.494;7.546;2023-03-01T01:20:10;8.50;;;4.30;;
40787;SDS011;26497;52.494;7.546;2023-03-01T01:22:38;7.43;;;4.05;;
40787;SDS011;26497;52.494;7.546;2023-03-01T01:25:05;12.70;;;4.70;;
40787;SDS011;26497;52.494;7.546;2023-03-01T01:27:33;8.20;;;4.93;;
40787;SDS011;26497;52.494;7.546;2023-03-01T01:30:00;15.95;;;5.45;;
40787;SDS011;26497;52.494;7.546;2023-03-01T01:32:30;11.25;;;5.07;;
40787;SDS011;26497;52.494;7.546;2023-03-01T01:34:57;7.45;;;4.63;;
40787;SDS011;26497;52.494;7.546;2023-03-01T01:37:24;9.55;;;4.80;;
40787;SDS011;26497;52.494;7.546;2023-03-01T01:39:56;10.32;;;5.05;;
40787;SDS011;26497;52.494;7.546;2023-03-01T01:42:24;10.73;;;5.00;;
40787;SDS011;26497;52.494;7.546;2023-03-01T01:47:54;8.48;;;5.05;;
40787;SDS011;26497;52.494;7.546;2023-03-01T01:50:26;9.07;;;5.22;;
40787;SDS011;26497;52.494;7.546;2023-03-01T01:53:04;10.48;;;6.07;;
40787;SDS011;26497;52.494;7.546;2023-03-01T01:55:35;11.82;;;5.70;;
40787;SDS011;26497;52.494;7.546;2023-03-01T01:58:06;9.55;;;5.97;;
40787;SDS011;26497;52.494;7.546;2023-03-01T02:00:37;11.38;;;6.00;;
40787;SDS011;26497;52.494;7.546;2023-03-01T02:03:07;9.70;;;5.32;;
40787;SDS011;26497;52.494;7.546;2023-03-01T02:05:38;9.63;;;5.03;;
40787;SDS011;26497;52.494;7.546;2023-03-01T02:08:13;10.40;;;5.90;;
40787;SDS011;26497;52.494;7.546;2023-03-01T02:10:43;13.00;;;6.07;;
40787;SDS011;26497;52.494;7.546;2023-03-01T02:13:11;12.50;;;6.10;;
40787;SDS011;26497;52.494;7.546;2023-03-01T02:15:39;14.65;;;6.22;;
40787;SDS011;26497;52.494;7.546;2023-03-01T02:18:10;10.77;;;5.05;;
40787;SDS011;26497;52.494;7.546;2023-03-01T02:20:44;14.15;;;5.82;;
40787;SDS011;26497;52.494;7.546;2023-03-01T02:23:23;11.23;;;5.82;;
40787;SDS011;26497;52.494;7.546;2023-03-01T02:25:52;8.75;;;5.88;;
40787;SDS011;26497;52.494;7.546;2023-03-01T02:28:30;9.88;;;5.43;;
40787;SDS011;26497;52.494;7.546;2023-03-01T02:30:59;12.55;;;6.18;;
40787;SDS011;26497;52.494;7.546;2023-03-01T02:33:45;7.22;;;5.43;;
40787;SDS011;26497;52.494;7.546;2023-03-01T02:36:15;9.68;;;6.15;;
40787;SDS011;26497;52.494;7.546;2023-03-01T02:38:46;19.98;;;6.05;;
40787;SDS011;26497;52.494;7.546;2023-03-01T02:41:15;11.52;;;5.53;;
40787;SDS011;26497;52.494;7.546;2023-03-01T02:43:45;10.50;;;4.50;;
40787;SDS011;26497;52.494;7.546;2023-03-01T02:46:14;12.13;;;5.63;;
40787;SDS011;26497;52.494;7.546;2023-03-01T02:48:44;11.27;;;6.20;;
40787;SDS011;26497;52.494;7.546;2023-03-01T02:51:18;9.32;;;5.97;;
40787;SDS011;26497;52.494;7.546;2023-03-01T02:54:07;11.60;;;5.97;;
40787;SDS011;26497;52.494;7.546;2023-03-01T02:56:42;11.13;;;6.50;;
40787;SDS011;26497;52.494;7.546;2023-03-01T02:59:14;9.98;;;5.45;;
40787;SDS011;26497;52.494;7.546;2023-03-01T03:01:43;9.60;;;5.57;;
40787;SDS011;26497;52.494;7.546;2023-03-01T03:04:13;9.77;;;5.65;;
40787;SDS011;26497;52.494;7.546;2023-03-01T03:06:43;6.20;;;4.13;;
40787;SDS011;26497;52.494;7.546;2023-03-01T03:09:11;9.38;;;4.65;;
40787;SDS011;26497;52.494;7.546;2023-03-01T03:11:38;8.48;;;4.63;;
40787;SDS011;26497;52.494;7.546;2023-03-01T03:14:06;8.90;;;4.65;;
40787;SDS011;26497;52.494;7.546;2023-03-01T03:16:40;8.52;;;4.80;;
40787;SDS011;26497;52.494;7.546;2023-03-01T03:19:08;10.88;;;4.53;;
40787;SDS011;26497;52.494;7.546;2023-03-01T03:21:35;10.40;;;5.43;;
40787;SDS011;26497;52.494;7.546;2023-03-01T03:24:02;10.20;;;5.05;;
40787;SDS011;26497;52.494;7.546;2023-03-01T03:26:30;10.30;;;4.57;;
40787;SDS011;26497;52.494;7.546;2023-03-01T03:28:58;10.35;;;4.43;;
40787;SDS011;26497;52.494;7.546;2023-03-01T03:31:25;7.88;;;4.50;;
40787;SDS011;26497;52.494;7.546;2023-03-01T03:33:54;9.65;;;5.75;;
40787;SDS011;26497;52.494;7.546;2023-03-01T03:36:24;9.30;;;5.43;;
40787;SDS011;26497;52.494;7.546;2023-03-01T03:38:51;8.13;;;5.28;;
40787;SDS011;26497;52.494;7.546;2023-03-01T03:41:18;12.23;;;5.28;;
40787;SDS011;26497;52.494;7.546;2023-03-01T03:43:45;9.57;;;5.03;;
40787;SDS011;26497;52.494;7.546;2023-03-01T03:46:14;8.25;;;5.60;;
40787;SDS011;26497;52.494;7.546;2023-03-01T03:48:43;9.95;;;5.32;;
40787;SDS011;26497;52.494;7.546;2023-03-01T03:51:13;20.80;;;6.50;;
40787;SDS011;26497;52.494;7.546;2023-03-01T03:53:43;11.77;;;5.93;;
40787;SDS011;26497;52.494;7.546;2023-03-01T03:56:11;9.05;;;5.22;;
40787;SDS011;26497;52.494;7.546;2023-03-01T03:58:38;12.85;;;6.88;;
40787;SDS011;26497;52.494;7.546;2023-03-01T04:01:06;15.10;;;6.78;;
40787;SDS011;26497;52.494;7.546;2023-03-01T04:03:33;17.05;;;5.78;;
40787;SDS011;26497;52.494;7.546;2023-03-01T04:06:01;11.88;;;6.60;;
40787;SDS011;26497;52.494;7.546;2023-03-01T04:08:30;12.18;;;5.85;;
40787;SDS011;26497;52.494;7.546;2023-03-01T04:10:58;14.25;;;6.47;;
40787;SDS011;26497;52.494;7.546;2023-03-01T04:13:48;13.57;;;6.03;;
40787;SDS011;26497;52.494;7.546;2023-03-01T04:16:16;14.48;;;7.22;;
40787;SDS011;26497;52.494;7.546;2023-03-01T04:18:43;12.77;;;6.15;;
40787;SDS011;26497;52.494;7.546;2023-03-01T04:21:10;15.85;;;7.85;;
40787;SDS011;26497;52.494;7.546;2023-03-01T04:23:39;17.63;;;8.45;;
40787;SDS011;26497;52.494;7.546;2023-03-01T04:26:07;17.98;;;7.00;;
40787;SDS011;26497;52.494;7.546;2023-03-01T04:28:36;15.93;;;5.80;;
40787;SDS011;26497;52.494;7.546;2023-03-01T04:31:06;10.60;;;6.35;;
40787;SDS011;26497;52.494;7.546;2023-03-01T04:33:39;15.90;;;6.78;;
40787;SDS011;26497;52.494;7.546;2023-03-01T04:36:07;14.70;;;7.45;;
40787;SDS011;26497;52.494;7.546;2023-03-01T04:38:36;14.00;;;7.05;;
40787;SDS011;26497;52.494;7.546;2023-03-01T04:41:06;17.05;;;8.35;;
40787;SDS011;26497;52.494;7.546;2023-03-01T04:43:37;15.68;;;6.63;;
40787;SDS011;26497;52.494;7.546;2023-03-01T04:46:05;23.63;;;6.97;;
40787;SDS011;26497;52.494;7.546;2023-03-01T04:48:34;13.55;;;6.80;;
40787;SDS011;26497;52.494;7.546;2023-03-01T04:51:01;16.98;;;7.60;;
40787;SDS011;26497;52.494;7.546;2023-03-01T04:53:29;13.00;;;8.35;;
40787;SDS011;26497;52.494;7.546;2023-03-01T04:55:57;20.45;;;6.72;;
40787;SDS011;26497;52.494;7.546;2023-03-01T04:58:26;16.17;;;7.38;;
40787;SDS011;26497;52.494;7.546;2023-03-01T05:00:54;13.80;;;6.95;;
40787;SDS011;26497;52.494;7.546;2023-03-01T05:03:22;11.95;;;6.57;;
40787;SDS011;26497;52.494;7.546;2023-03-01T05:05:50;17.63;;;7.95;;
40787;SDS011;26497;52.494;7.546;2023-03-01T05:08:18;24.10;;;7.18;;
40787;SDS011;26497;52.494;7.546;2023-03-01T05:10:48;11.82;;;6.38;;
40787;SDS011;26497;52.494;7.546;2023-03-01T05:13:17;14.60;;;5.47;;
40787;SDS011;26497;52.494;7.546;2023-03-01T05:15:49;10.63;;;6.13;;
40787;SDS011;26497;52.494;7.546;2023-03-01T05:18:21;16.85;;;5.72;;
40787;SDS011;26497;52.494;7.546;2023-03-01T05:20:50;16.48;;;6.00;;
40787;SDS011;26497;52.494;7.546;2023-03-01T05:23:20;15.25;;;6.85;;
40787;SDS011;26497;52.494;7.546;2023-03-01T05:25:53;13.95;;;6.70;;
40787;SDS011;26497;52.494;7.546;2023-03-01T05:28:25;14.73;;;6.38;;
40787;SDS011;26497;52.494;7.546;2023-03-01T05:30:54;13.50;;;6.25;;
40787;SDS011;26497;52.494;7.546;2023-03-01T05:33:23;11.25;;;6.63;;
40787;SDS011;26497;52.494;7.546;2023-03-01T05:35:51;16.00;;;7.38;;
40787;SDS011;26497;52.494;7.546;2023-03-01T05:38:19;12.52;;;6.80;;
40787;SDS011;26497;52.494;7.546;2023-03-01T05:40:47;13.95;;;6.38;;
40787;SDS011;26497;52.494;7.546;2023-03-01T05:43:15;10.90;;;6.50;;
40787;SDS011;26497;52.494;7.546;2023-03-01T05:45:43;21.67;;;8.10;;
40787;SDS011;26497;52.494;7.546;2023-03-01T05:48:12;17.92;;;8.55;;
40787;SDS011;26497;52.494;7.546;2023-03-01T05:50:40;18.10;;;8.57;;
40787;SDS011;26497;52.494;7.546;2023-03-01T05:53:11;11.98;;;6.28;;
40787;SDS011;26497;52.494;7.546;2023-03-01T05:55:40;18.33;;;7.07;;
40787;SDS011;26497;52.494;7.546;2023-03-01T05:58:09;13.73;;;7.60;;
40787;SDS011;26497;52.494;7.546;2023-03-01T06:00:39;17.35;;;7.22;;
40787;SDS011;26497;52.494;7.546;2023-03-01T06:03:09;14.82;;;7.57;;
40787;SDS011;26497;52.494;7.546;2023-03-01T06:05:38;24.10;;;10.32;;
40787;SDS011;26497;52.494;7.546;2023-03-01T06:08:06;14.15;;;8.02;;
40787;SDS011;26497;52.494;7.546;2023-03-01T06:10:35;21.60;;;10.15;;
40787;SDS011;26497;52.494;7.546;2023-03-01T06:13:02;23.08;;;9.90;;
40787;SDS011;26497;52.494;7.546;2023-03-01T06:15:29;20.52;;;8.80;;
40787;SDS011;26497;52.494;7.546;2023-03-01T06:17:56;18.08;;;7.50;;
40787;SDS011;26497;52.494;7.546;2023-03-01T06:20:24;19.58;;;7.90;;
40787;SDS011;26497;52.494;7.546;2023-03-01T06:22:54;18.42;;;6.93;;
40787;SDS011;26497;52.494;7.546;2023-03-01T06:25:23;15.73;;;7.25;;
40787;SDS011;26497;52.494;7.546;2023-03-01T06:27:51;19.23;;;6.63;;
40787;SDS011;26497;52.494;7.546;2023-03-01T06:30:19;19.17;;;8.73;;
40787;SDS011;26497;52.494;7.546;2023-03-01T06:32:49;13.93;;;7.82;;
40787;SDS011;26497;52.494;7.546;2023-03-01T06:35:16;25.35;;;8.75;;
40787;SDS011;26497;52.494;7.546;2023-03-01T06:37:44;23.70;;;9.20;;
40787;SDS011;26497;52.494;7.546;2023-03-01T06:40:14;30.27;;;12.02;;
40787;SDS011;26497;52.494;7.546;2023-03-01T06:42:43;32.85;;;11.30;;
40787;SDS011;26497;52.494;7.546;2023-03-01T06:45:15;26.25;;;11.38;;
40787;SDS011;26497;52.494;7.546;2023-03-01T06:47:43;24.35;;;10.75;;
40787;SDS011;26497;52.494;7.546;2023-03-01T06:50:10;23.60;;;9.50;;
40787;SDS011;26497;52.494;7.546;2023-03-01T06:52:38;24.70;;;10.30;;
40787;SDS011;26497;52.494;7.546;2023-03-01T06:55:05;22.80;;;9.18;;
40787;SDS011;26497;52.494;7.546;2023-03-01T06:57:35;15.57;;;7.20;;
40787;SDS011;26497;52.494;7.546;2023-03-01T07:00:02;11.98;;;6.93;;
40787;SDS011;26497;52.494;7.546;2023-03-01T07:02:30;15.15;;;8.40;;
40787;SDS011;26497;52.494;7.546;2023-03-01T07:04:58;14.57;;;7.18;;
40787;SDS011;26497;52.494;7.546;2023-03-01T07:07:25;14.35;;;8.10;;
40787;SDS011;26497;52.494;7.546;2023-03-01T07:09:52;18.52;;;7.78;;
40787;SDS011;26497;52.494;7.546;2023-03-01T07:12:19;12.50;;;6.72;;
40787;SDS011;26497;52.494;7.546;2023-03-01T07:14:48;10.13;;;5.60;;
40787;SDS011;26497;52.494;7.546;2023-03-01T07:17:15;9.60;;;5.72;;
40787;SDS011;26497;52.494;7.546;2023-03-01T07:19:42;10.43;;;5.10;;
40787;SDS011;26497;52.494;7.546;2023-03-01T07:22:09;10.68;;;5.93;;
40787;SDS011;26497;52.494;7.546;2023-03-01T07:24:37;11.30;;;6.97;;
40787;SDS011;26497;52.494;7.546;2023-03-01T07:27:04;13.32;;;6.32;;
40787;SDS011;26497;52.494;7.546;2023-03-01T07:29:31;11.20;;;6.78;;
40787;SDS011;26497;52.494;7.546;2023-03-01T07:31:59;12.95;;;6.55;;
40787;SDS011;26497;52.494;7.546;2023-03-01T07:34:26;11.55;;;6.82;;
40787;SDS011;26497;52.494;7.546;2023-03-01T07:36:53;15.80;;;6.80;;
40787;SDS011;26497;52.494;7.546;2023-03-01T07:39:20;13.45;;;7.18;;
40787;SDS011;26497;52.494;7.546;2023-03-01T07:41:49;14.88;;;7.78;;
40787;SDS011;26497;52.494;7.546;2023-03-01T07:44:16;29.40;;;8.73;;
40787;SDS011;26497;52.494;7.546;2023-03-01T07:46:43;23.80;;;8.48;;
40787;SDS011;26497;52.494;7.546;2023-03-01T07:49:11;14.23;;;8.05;;
40787;SDS011;26497;52.494;7.546;2023-03-01T07:51:39;17.10;;;9.05;;
40787;SDS011;26497;52.494;7.546;2023-03-01T07:54:07;17.95;;;8.25;;
40787;SDS011;26497;52.494;7.546;2023-03-01T07:56:34;24.88;;;10.13;;
40787;SDS011;26497;52.494;7.546;2023-03-01T07:59:01;14.63;;;8.88;;
40787;SDS011;26497;52.494;7.546;2023-03-01T08:01:28;16.48;;;9.25;;
40787;SDS011;26497;52.494;7.546;2023-03-01T08:03:55;22.45;;;9.02;;
40787;SDS011;26497;52.494;7.546;2023-03-01T08:06:23;18.92;;;10.30;;
40787;SDS011;26497;52.494;7.546;2023-03-01T08:08:51;14.80;;;9.80;;
40787;SDS011;26497;52.494;7.546;2023-03-01T08:11:20;20.40;;;9.30;;
40787;SDS011;26497;52.494;7.546;2023-03-01T08:13:48;25.60;;;8.55;;
40787;SDS011;26497;52.494;7.546;2023-03-01T08:16:15;17.38;;;8.40;;
40787;SDS011;26497;52.494;7.546;2023-03-01T08:18:42;18.08;;;8.88;;
40787;SDS011;26497;52.494;7.546;2023-03-01T08:21:10;15.43;;;7.93;;
40787;SDS011;26497;52.494;7.546;2023-03-01T08:23:41;18.05;;;9.50;;
40787;SDS011;26497;52.494;7.546;2023-03-01T08:26:09;21.20;;;8.43;;
40787;SDS011;26497;52.494;7.546;2023-03-01T08:28:42;22.95;;;11.50;;
40787;SDS011;26497;52.494;7.546;2023-03-01T08:31:15;16.17;;;10.98;;
40787;SDS011;26497;52.494;7.546;2023-03-01T08:33:46;17.60;;;9.32;;
40787;SDS011;26497;52.494;7.546;2023-03-01T08:36:16;15.02;;;8.50;;
40787;SDS011;26497;52.494;7.546;2023-03-01T08:38:46;12.50;;;7.32;;
40787;SDS011;26497;52.494;7.546;2023-03-01T08:41:13;16.85;;;8.45;;
40787;SDS011;26497;52.494;7.546;2023-03-01T08:43:40;12.52;;;8.02;;
40787;SDS011;26497;52.494;7.546;2023-03-01T08:46:07;22.85;;;8.98;;
40787;SDS011;26497;52.494;7.546;2023-03-01T08:48:34;14.85;;;6.90;;
40787;SDS011;26497;52.494;7.546;2023-03-01T08:51:08;10.68;;;6.82;;
40787;SDS011;26497;52.494;7.546;2023-03-01T08:53:36;15.65;;;7.43;;
40787;SDS011;26497;52.494;7.546;2023-03-01T08:56:05;14.85;;;6.47;;
40787;SDS011;26497;52.494;7.546;2023-03-01T08:58:33;11.32;;;6.43;;
40787;SDS011;26497;52.494;7.546;2023-03-01T09:01:01;7.13;;;4.55;;
40787;SDS011;26497;52.494;7.546;2023-03-01T09:03:33;11.80;;;4.97;;
40787;SDS011;26497;52.494;7.546;2023-03-01T09:06:01;11.57;;;4.65;;
40787;SDS011;26497;52.494;7.546;2023-03-01T09:08:29;6.97;;;4.85;;
40787;SDS011;26497;52.494;7.546;2023-03-01T09:10:57;8.77;;;4.53;;
40787;SDS011;26497;52.494;7.546;2023-03-01T09:13:25;11.18;;;4.72;;
40787;SDS011;26497;52.494;7.546;2023-03-01T09:15:56;8.23;;;4.45;;
40787;SDS011;26497;52.494;7.546;2023-03-01T09:18:23;10.93;;;4.40;;
40787;SDS011;26497;52.494;7.546;2023-03-01T09:20:50;7.85;;;4.45;;
40787;SDS011;26497;52.494;7.546;2023-03-01T09:23:19;9.30;;;4.63;;
40787;SDS011;26497;52.494;7.546;2023-03-01T09:25:47;11.32;;;4.85;;
40787;SDS011;26497;52.494;7.546;2023-03-01T09:28:14;5.70;;;5.20;;
40787;SDS011;26497;52.494;7.546;2023-03-01T09:30:42;5.88;;;5.30;;
40787;SDS011;26497;52.494;7.546;2023-03-01T09:33:09;10.30;;;7.63;;
40787;SDS011;26497;52.494;7.546;2023-03-01T09:35:39;7.22;;;5.88;;
40787;SDS011;26497;52.494;7.546;2023-03-01T09:38:11;8.32;;;5.60;;
40787;SDS011;26497;52.494;7.546;2023-03-01T09:40:41;8.20;;;6.10;;
40787;SDS011;26497;52.494;7.546;2023-03-01T09:43:14;8.65;;;6.28;;
40787;SDS011;26497;52.494;7.546;2023-03-01T09:45:50;9.52;;;5.90;;
40787;SDS011;26497;52.494;7.546;2023-03-01T09:48:23;14.77;;;5.43;;
40787;SDS011;26497;52.494;7.546;2023-03-01T09:50:53;6.45;;;5.63;;
40787;SDS011;26497;52.494;7.546;2023-03-01T09:53:21;5.55;;;4.18;;
40787;SDS011;26497;52.494;7.546;2023-03-01T09:55:58;5.07;;;3.63;;
40787;SDS011;26497;52.494;7.546;2023-03-01T09:58:37;4.78;;;3.53;;
40787;SDS011;26497;52.494;7.546;2023-03-01T10:01:26;5.00;;;3.30;;
40787;SDS011;26497;52.494;7.546;2023-03-01T10:04:11;3.05;;;2.83;;
40787;SDS011;26497;52.494;7.546;2023-03-01T10:06:56;5.07;;;3.55;;
40787;SDS011;26497;52.494;7.546;2023-03-01T10:09:37;7.07;;;3.10;;
40787;SDS011;26497;52.494;7.546;2023-03-01T10:12:07;6.03;;;3.05;;
40787;SDS011;26497;52.494;7.546;2023-03-01T10:14:39;4.18;;;3.78;;
40787;SDS011;26497;52.494;7.546;2023-03-01T10:17:18;4.18;;;3.33;;
40787;SDS011;26497;52.494;7.546;2023-03-01T10:19:53;4.13;;;3.80;;
40787;SDS011;26497;52.494;7.546;2023-03-01T10:22:25;7.90;;;5.50;;
40787;SDS011;26497;52.494;7.546;2023-03-01T10:24:57;5.32;;;4.82;;
40787;SDS011;26497;52.494;7.546;2023-03-01T10:27:29;5.85;;;5.25;;
40787;SDS011;26497;52.494;7.546;2023-03-01T10:30:09;5.07;;;4.45;;
40787;SDS011;26497;52.494;7.546;2023-03-01T10:32:44;7.97;;;5.07;;
40787;SDS011;26497;52.494;7.546;2023-03-01T10:35:17;7.50;;;6.45;;
40787;SDS011;26497;52.494;7.546;2023-03-01T10:37:56;6.28;;;5.45;;
40787;SDS011;26497;52.494;7.546;2023-03-01T10:42:57;10.10;;;4.85;;
40787;SDS011;26497;52.494;7.546;2023-03-01T10:45:30;4.97;;;4.57;;
40787;SDS011;26497;52.494;7.546;2023-03-01T10:51:04;6.50;;;5.90;;
40787;SDS011;26497;52.494;7.546;2023-03-01T10:53:34;6.32;;;5.10;;
40787;SDS011;26497;52.494;7.546;2023-03-01T10:56:05;6.93;;;5.63;;
40787;SDS011;26497;52.494;7.546;2023-03-01T10:58:35;7.47;;;4.50;;
40787;SDS011;26497;52.494;7.546;2023-03-01T11:01:04;4.85;;;4.45;;
40787;SDS011;26497;52.494;7.546;2023-03-01T11:04:03;5.78;;;5.00;;
40787;SDS011;26497;52.494;7.546;2023-03-01T11:06:38;4.57;;;4.18;;
40787;SDS011;26497;52.494;7.546;2023-03-01T11:09:14;4.63;;;4.18;;
40787;SDS011;26497;52.494;7.546;2023-03-01T11:11:44;5.82;;;4.53;;
40787;SDS011;26497;52.494;7.546;2023-03-01T11:14:18;4.72;;;4.43;;
40787;SDS011;26497;52.494;7.546;2023-03-01T11:16:48;4.20;;;3.80;;
40787;SDS011;26497;52.494;7.546;2023-03-01T11:19:30;6.45;;;3.47;;
40787;SDS011;26497;52.494;7.546;2023-03-01T11:21:59;7.90;;;3.85;;
40787;SDS011;26497;52.494;7.546;2023-03-01T11:24:39;7.45;;;3.88;;
40787;SDS011;26497;52.494;7.546;2023-03-01T11:27:17;3.92;;;3.53;;
40787;SDS011;26497;52.494;7.546;2023-03-01T11:29:50;5.57;;;3.60;;
40787;SDS011;26497;52.494;7.546;2023-03-01T11:32:23;5.63;;;3.35;;
40787;SDS011;26497;52.494;7.546;2023-03-01T11:34:58;5.10;;;4.47;;
40787;SDS011;26497;52.494;7.546;2023-03-01T11:37:36;7.15;;;4.30;;
40787;SDS011;26497;52.494;7.546;2023-03-01T11:40:12;4.38;;;3.97;;
40787;SDS011;26497;52.494;7.546;2023-03-01T11:42:49;5.32;;;3.65;;
40787;SDS011;26497;52.494;7.546;2023-03-01T11:45:30;3.83;;;3.53;;
40787;SDS011;26497;52.494;7.546;2023-03-01T11:48:17;5.55;;;4.05;;
40787;SDS011;26497;52.494;7.546;2023-03-01T11:51:09;7.72;;;4.47;;
40787;SDS011;26497;52.494;7.546;2023-03-01T11:53:51;4.38;;;3.95;;
40787;SDS011;26497;52.494;7.546;2023-03-01T11:56:34;5.18;;;4.07;;
40787;SDS011;26497;52.494;7.546;2023-03-01T12:02:26;9.77;;;3.35;;
40787;SDS011;26497;52.494;7.546;2023-03-01T12:05:38;6.50;;;3.78;;
40787;SDS011;26497;52.494;7.546;2023-03-01T12:08:39;6.30;;;4.03;;
40787;SDS011;26497;52.494;7.546;2023-03-01T12:11:17;4.43;;;3.60;;
40787;SDS011;26497;52.494;7.546;2023-03-01T12:13:57;4.00;;;3.70;;
40787;SDS011;26497;52.494;7.546;2023-03-01T12:16:54;4.55;;;3.22;;
40787;SDS011;26497;52.494;7.546;2023-03-01T12:19:48;3.38;;;2.97;;
40787;SDS011;26497;52.494;7.546;2023-03-01T12:22:34;5.63;;;2.90;;
40787;SDS011;26497;52.494;7.546;2023-03-01T12:25:18;5.90;;;2.83;;
40787;SDS011;26497;52.494;7.546;2023-03-01T12:30:57;5.22;;;2.65;;
40787;SDS011;26497;52.494;7.546;2023-03-01T12:33:44;4.00;;;3.15;;
40787;SDS011;26497;52.494;7.546;2023-03-01T12:36:22;3.28;;;2.92;;
40787;SDS011;26497;52.494;7.546;2023-03-01T12:39:09;8.05;;;3.25;;
40787;SDS011;26497;52.494;7.546;2023-03-01T12:41:53;7.28;;;4.13;;
40787;SDS011;26497;52.494;7.546;2023-03-01T12:44:37;7.75;;;4.68;;
40787;SDS011;26497;52.494;7.546;2023-03-01T12:47:24;3.70;;;3.40;;
40787;SDS011;26497;52.494;7.546;2023-03-01T12:50:11;7.28;;;3.63;;
40787;SDS011;26497;52.494;7.546;2023-03-01T12:52:46;5.20;;;3.50;;
40787;SDS011;26497;52.494;7.546;2023-03-01T12:55:20;4.20;;;3.40;;
40787;SDS011;26497;52.494;7.546;2023-03-01T12:58:00;3.50;;;3.20;;
40787;SDS011;26497;52.494;7.546;2023-03-01T13:00:40;8.57;;;3.83;;
40787;SDS011;26497;52.494;7.546;2023-03-01T13:03:21;6.55;;;3.85;;
40787;SDS011;26497;52.494;7.546;2023-03-01T13:06:01;7.85;;;3.75;;
40787;SDS011;26497;52.494;7.546;2023-03-01T13:08:38;4.97;;;3.80;;
40787;SDS011;26497;52.494;7.546;2023-03-01T13:11:13;5.70;;;3.50;;
40787;SDS011;26497;52.494;7.546;2023-03-01T13:13:46;6.63;;;3.08;;
40787;SDS011;26497;52.494;7.546;2023-03-01T13:16:21;6.65;;;3.60;;
40787;SDS011;26497;52.494;7.546;2023-03-01T13:19:08;3.25;;;2.95;;
40787;SDS011;26497;52.494;7.546;2023-03-01T13:21:41;5.28;;;4.25;;
40787;SDS011;26497;52.494;7.546;2023-03-01T13:24:28;7.13;;;3.55;;
40787;SDS011;26497;52.494;7.546;2023-03-01T13:27:10;4.35;;;3.70;;
40787;SDS011;26497;52.494;7.546;2023-03-01T13:29:55;6.53;;;3.70;;
40787;SDS011;26497;52.494;7.546;2023-03-01T13:32:28;4.63;;;3.90;;
40787;SDS011;26497;52.494;7.546;2023-03-01T13:34:58;6.43;;;3.83;;
40787;SDS011;26497;52.494;7.546;2023-03-01T13:37:33;4.15;;;3.65;;
40787;SDS011;26497;52.494;7.546;2023-03-01T13:40:05;5.05;;;3.40;;
40787;SDS011;26497;52.494;7.546;2023-03-01T13:43:29;4.32;;;3.33;;
40787;SDS011;26497;52.494;7.546;2023-03-01T13:45:59;5.50;;;3.35;;
40787;SDS011;26497;52.494;7.546;2023-03-01T13:48:29;3.90;;;3.25;;
40787;SDS011;26497;52.494;7.546;2023-03-01T13:50:58;4.13;;;3.20;;
40787;SDS011;26497;52.494;7.546;2023-03-01T13:56:00;4.05;;;3.65;;
40787;SDS011;26497;52.494;7.546;2023-03-01T13:58:33;4.75;;;3.35;;
40787;SDS011;26497;52.494;7.546;2023-03-01T14:01:22;5.55;;;3.45;;
40787;SDS011;26497;52.494;7.546;2023-03-01T14:03:53;4.22;;;3.53;;
40787;SDS011;26497;52.494;7.546;2023-03-01T14:06:21;4.18;;;3.70;;
40787;SDS011;26497;52.494;7.546;2023-03-01T14:08:52;4.72;;;4.43;;
40787;SDS011;26497;52.494;7.546;2023-03-01T14:11:40;5.53;;;5.10;;
40787;SDS011;26497;52.494;7.546;2023-03-01T14:14:45;7.20;;;4.10;;
40787;SDS011;26497;52.494;7.546;2023-03-01T14:17:29;4.32;;;3.30;;
40787;SDS011;26497;52.494;7.546;2023-03-01T14:20:14;3.47;;;3.17;;
40787;SDS011;26497;52.494;7.546;2023-03-01T14:22:46;5.68;;;3.60;;
40787;SDS011;26497;52.494;7.546;2023-03-01T14:25:22;5.88;;;3.83;;
40787;SDS011;26497;52.494;7.546;2023-03-01T14:27:56;5.22;;;4.00;;
40787;SDS011;26497;52.494;7.546;2023-03-01T14:30:32;5.13;;;3.65;;
40787;SDS011;26497;52.494;7.546;2023-03-01T14:33:06;8.18;;;6.47;;
40787;SDS011;26497;52.494;7.546;2023-03-01T14:35:52;3.83;;;3.38;;
40787;SDS011;26497;52.494;7.546;2023-03-01T14:38:23;6.00;;;3.55;;
40787;SDS011;26497;52.494;7.546;2023-03-01T14:40:58;5.90;;;3.83;;
40787;SDS011;26497;52.494;7.546;2023-03-01T14:43:29;3.78;;;3.38;;
40787;SDS011;26497;52.494;7.546;2023-03-01T14:45:57;12.23;;;3.75;;
40787;SDS011;26497;52.494;7.546;2023-03-01T14:48:26;6.20;;;4.30;;
40787;SDS011;26497;52.494;7.546;2023-03-01T14:50:54;6.70;;;3.90;;
40787;SDS011;26497;52.494;7.546;2023-03-01T14:53:23;16.65;;;15.40;;
40787;SDS011;26497;52.494;7.546;2023-03-01T14:55:53;7.97;;;4.28;;
40787;SDS011;26497;52.494;7.546;2023-03-01T14:58:24;4.53;;;3.80;;
40787;SDS011;26497;52.494;7.546;2023-03-01T15:00:52;7.53;;;3.67;;
40787;SDS011;26497;52.494;7.546;2023-03-01T15:03:28;7.65;;;3.95;;
40787;SDS011;26497;52.494;7.546;2023-03-01T15:06:00;6.28;;;3.92;;
40787;SDS011;26497;52.494;7.546;2023-03-01T15:08:28;4.40;;;3.63;;
40787;SDS011;26497;52.494;7.546;2023-03-01T15:10:59;10.60;;;4.43;;
40787;SDS011;26497;52.494;7.546;2023-03-01T15:13:30;8.15;;;3.72;;
40787;SDS011;26497;52.494;7.546;2023-03-01T15:16:04;8.75;;;4.05;;
40787;SDS011;26497;52.494;7.546;2023-03-01T15:18:36;6.97;;;4.03;;
40787;SDS011;26497;52.494;7.546;2023-03-01T15:21:07;8.30;;;4.70;;
40787;SDS011;26497;52.494;7.546;2023-03-01T15:23:39;7.93;;;5.13;;
40787;SDS011;26497;52.494;7.546;2023-03-01T15:26:17;6.55;;;4.80;;
40787;SDS011;26497;52.494;7.546;2023-03-01T15:28:54;6.72;;;4.65;;